Watson Lake Airport
CYQH : now visible

Airfield :











YOU CAN JOIN US ON...

 
LOGIN :

Register | Disclaimer

   EN    FR    IT 

 









Legend :    VFR   Marginal VFR   IFR   Intensive IFR   Very Intensive IFR
Visi :
Ceiling :
>= 8 km
>= 3000ft
5 to 8 km
1000 to 3000 ft
1500m to 5 km
500 to 1000 ft
800 to 1500m
200 to 500 ft
< 800m
< 200 ft
Symbols :   Thunderstorms  Fog  Heavy snow  Heavy precipitations  Wind > 20 kt






- Airport Elevation : 2255 ft
- IATA code : YQH


CYQH - Watson Lake

CURRENT METAR :
  • 100400Z 32007KT 20SM FEW035 SCT080 M03/M11 A3008 RMK SC2AC2 SLP229

EXPIRED METARs :
  • 100300Z 33011G16KT 30SM FEW035 SCT080 00/M11 A3005 RMK SC2AC2 SLP220
  • 100200Z 30015KT 30SM SCT035 BKN080 01/M10 A3003 RMK SC3AC2 SLP212

TAF TAF CYQH
Valid from the 10 at 00:00 until the 10 at 12:00 UTC


092338Z 1000/1012 30012G22KT P6SM SCT030 BKN080
TEMPO 1000/1007 P6SM -SHSN
FM100700 30010G20KT P6SM SCT080
BECMG 1009/1011 30007KT RMK NXT FCST BY 100600Z



MET'MAP, your aeronautical weather chart ! - Copyright ORBIFLY December 2007 - Disclaimer

ORBIFLY MET'MAP TEAM :

Programming & Development : Alexandra Zaïnal
Concept & original design : Baudouin d'Aumeries
Assistance for programming : Marc-Olivier Méhu
Technical & hardware support : Manuel Goepfert

Contact : metmap@orbifly.com




SOURCES & CREDITS :

   NOAA       Earth
Advisory